• Join FlightAware (Why Join?)
  • Login
  • US Flag 
03:02AM EDT


 

Airport Tracker/Info


-or-


 

Live Flight TrackerFlight Track Log ✈ AWE795 ✈ 01-Jun-2013 ✈ KPHL - KDCA

Flight Track Log - Related Links

Times and Time Zones

All times are in EDT time to prevent confusion due to time zone crossing. See the AWE795 flight status page for this flight to view local times or setup timezone preferences in your user account.

Time Position Orientation Groundspeed Altitude Reporting Facility
EDT Latitude Longitude Course Direction KTS MPH feet Rate Location/Type
09:15PM 39.8667 -75.2667 264° West 153 176 900  Level Philadelphia TRACON
09:17PM 39.8333 -75.3333 237° Southwest 204 235 3,200 1,920 Climbing Philadelphia TRACON
09:18PM 39.7340 -75.4653 237° Southwest  Level FlightAware Approximate
09:18PM 39.7833 -75.4167 232° Southwest 253 291 5,400  Level Philadelphia TRACON
09:19PM 39.7002 -75.5441 232° Southwest  Level FlightAware Approximate
09:19PM 39.7500 -75.4833 237° Southwest 266 306 7,800  Level Philadelphia TRACON
09:20PM 39.6645 -75.6260 264° West  Level FlightAware Approximate
09:20PM 39.7000 -75.5667 232° Southwest 283 326 10,000  Level Philadelphia TRACON
09:21PM 39.6565 -75.7225 264° West  Level FlightAware Approximate
09:21PM 39.6667 -75.6667 247° West 346 398 10,000  Level Philadelphia TRACON
09:21PM 39.6500 -75.7833 260° West 329 379 10,000  Level Philadelphia TRACON
09:24PM 39.6167 -76.0667 261° West 333 383 10,000  Level Potomac TRACON
09:25PM 39.6000 -76.1833 260° West 331 381 10,000  Level Potomac TRACON
09:26PM 39.5167 -76.2833 223° Southwest 334 384 10,000  Level Potomac TRACON
09:27PM 39.4500 -76.3667 224° Southwest 332 382 10,000  Level Potomac TRACON
09:28PM 39.4000 -76.4167 218° Southwest 332 382 10,000  Level Potomac TRACON
09:29PM 39.3167 -76.5167 223° Southwest 331 381 10,000  Level Potomac TRACON
09:30PM 39.2500 -76.5833 218° Southwest 330 380 10,000  Level Potomac TRACON
09:31PM 39.1833 -76.6500 218° Southwest 335 386 10,000  Level Potomac TRACON
09:32PM 39.1500 -76.7500 247° West 330 380 10,000  Level Potomac TRACON
09:33PM 39.1167 -76.8500 247° West 310 357 10,000 -1,020 Level Potomac TRACON
09:34PM 39.0833 -76.9500 247° West 280 322 7,900 -1,860 Descending Potomac TRACON
09:35PM 39.0500 -77.0333 243° Southwest 266 306 6,100 -1,980 Descending Potomac TRACON
09:36PM 39.0333 -77.1333 258° West 246 283 4,000 -1,920 Descending Potomac TRACON